Ana Sayfa
METAR-TAF:

METAR-TAF

Havaalanları :

Penn Yan Airport

Penn Yan, New York, Amerika Birleşik Devletleri

Enlem: 42-38-35N, Boylam: 077-02-58W, yükseklik: 275 m

Güncel hava durumu gözlemi

Rapor saat 13:53 UTC de 43 dakika önce yapıldı.
Rüzgar güney/güneybatıdan 11 kt
Sıcaklık 4°C
Nem 70%
Basınç 1014 hPa
Görüş mesafesi: 16.1 km
7000 ft yükseklikte çok bulutlu
hafif yağmur

METAR: KPEO 091353Z AUTO 20011KT 10SM -RA OVC070 04/M01 A2994 RMK AO2 SLP146 P0000 T00391011

Saat: 09:36 (14:36 UTC)


TAF: eksik

4.000'den fazla havaalanı için hava durumu gözlemleri ve tahminleri (METAR ve TAF raporları).

Kullanılabilir istasyonlar harita üzerinde sarı ve kırmızı noktalarla gösterilir.

İstasyonun adını görmek için fareyi noktanın üzerinde gezdirin.

Sonrasında hava gözlem ve tahminlerini görmek için tıklayın.

Haritayı değiştirmek için: yaklaştırmak için siyah artı işaretli yeşil düğmeye ve uzaklaştırmak için de eksi işaretli düğmeye hızla tıklayın; bitişik haritalar için yeşil okları kullanın.


METAR-TAF: